createdAt,value
2023-03-29T00:01:56.563Z,7.15
2023-03-29T00:06:58.042Z,6.28
2023-03-29T00:12:00.258Z,6.82
2023-03-29T00:17:01.739Z,5.75
2023-03-29T00:22:05.807Z,6.00
2023-03-29T00:27:07.282Z,6.68
2023-03-29T00:32:08.750Z,5.65
2023-03-29T00:37:10.206Z,6.35
2023-03-29T00:42:13.002Z,6.15
2023-03-29T00:47:14.477Z,7.78
2023-03-29T00:52:15.980Z,6.78
2023-03-29T00:57:17.514Z,6.47
2023-03-29T01:02:22.082Z,6.85
2023-03-29T01:07:48.156Z,7.07
2023-03-29T01:12:56.248Z,6.55
2023-03-29T01:17:58.385Z,5.18
2023-03-29T01:23:45.805Z,5.57
2023-03-29T01:28:51.657Z,6.68
2023-03-29T01:33:57.576Z,5.97
2023-03-29T01:39:00.711Z,5.88
2023-03-29T01:44:04.934Z,5.90
2023-03-29T01:49:12.127Z,4.82
2023-03-29T01:54:19.614Z,4.93
2023-03-29T01:59:22.660Z,4.97
2023-03-29T02:04:27.595Z,5.32
2023-03-29T02:09:29.512Z,5.10
2023-03-29T02:14:30.977Z,5.15
2023-03-29T02:19:32.497Z,5.20
2023-03-29T02:24:33.955Z,4.40
2023-03-29T02:29:35.405Z,4.30
2023-03-29T02:34:47.649Z,4.20
2023-03-29T02:39:49.666Z,5.13
2023-03-29T02:44:54.043Z,4.80
2023-03-29T02:49:55.673Z,4.75
2023-03-29T02:54:57.142Z,4.95
2023-03-29T02:59:58.724Z,4.32
2023-03-29T03:05:00.198Z,4.72
2023-03-29T03:10:03.840Z,4.60
2023-03-29T03:15:05.727Z,3.67
2023-03-29T03:20:13.954Z,3.45
2023-03-29T03:25:16.975Z,4.43
2023-03-29T03:30:18.833Z,4.30
2023-03-29T03:35:21.068Z,4.03
2023-03-29T03:40:22.549Z,4.32
2023-03-29T03:45:24.697Z,4.35
2023-03-29T03:50:26.162Z,4.45
2023-03-29T03:55:29.927Z,5.15
2023-03-29T04:00:31.397Z,3.72
2023-03-29T04:05:32.841Z,3.70
2023-03-29T04:10:34.704Z,4.22
2023-03-29T04:15:38.943Z,4.55
2023-03-29T04:20:40.446Z,4.00
2023-03-29T04:25:41.923Z,4.60
2023-03-29T04:30:43.544Z,4.30
2023-03-29T04:35:45.079Z,3.95
2023-03-29T04:40:46.545Z,4.25
2023-03-29T04:45:48.076Z,4.20
2023-03-29T04:50:49.819Z,4.38
2023-03-29T04:55:52.394Z,4.63
2023-03-29T05:00:58.177Z,4.93
2023-03-29T05:06:07.200Z,4.47
2023-03-29T05:11:10.220Z,4.05
2023-03-29T05:16:11.734Z,4.03
2023-03-29T05:21:13.316Z,3.85
2023-03-29T05:26:15.357Z,4.40
2023-03-29T05:31:17.420Z,3.67
2023-03-29T05:36:19.260Z,4.50
2023-03-29T05:41:20.714Z,4.40
2023-03-29T05:46:22.216Z,5.35
2023-03-29T05:51:24.643Z,5.10
2023-03-29T05:56:26.824Z,5.53
2023-03-29T06:01:28.580Z,4.95
2023-03-29T06:06:30.069Z,5.93
2023-03-29T06:11:33.097Z,5.80
2023-03-29T06:16:34.627Z,6.35
2023-03-29T06:21:36.129Z,7.18
2023-03-29T06:26:37.581Z,7.10
2023-03-29T06:31:39.100Z,6.97
2023-03-29T06:36:40.571Z,7.40
2023-03-29T06:41:42.472Z,6.97
2023-03-29T06:46:44.976Z,7.95
2023-03-29T06:51:46.887Z,7.85
2023-03-29T06:56:48.713Z,8.85
2023-03-29T07:01:50.276Z,8.88
2023-03-29T07:07:01.216Z,8.57
2023-03-29T07:12:02.672Z,8.65
2023-03-29T07:17:05.716Z,9.80
2023-03-29T07:22:08.097Z,8.90
2023-03-29T07:27:09.699Z,8.95
2023-03-29T07:32:11.312Z,10.02
2023-03-29T07:37:12.833Z,9.93
2023-03-29T07:42:14.350Z,9.18
2023-03-29T07:47:15.813Z,10.23
2023-03-29T07:52:17.325Z,9.15
2023-03-29T07:57:18.868Z,10.82
2023-03-29T08:02:21.064Z,10.60
2023-03-29T08:07:23.922Z,9.85
2023-03-29T08:12:25.686Z,11.18
2023-03-29T08:17:27.165Z,10.60
2023-03-29T08:22:28.716Z,10.07
2023-03-29T08:27:30.226Z,11.38
2023-03-29T08:32:31.780Z,10.65
2023-03-29T08:37:33.270Z,11.15
2023-03-29T08:42:56.732Z,10.18
2023-03-29T08:48:04.062Z,11.10
2023-03-29T08:53:16.894Z,11.70
2023-03-29T08:58:20.495Z,11.23
2023-03-29T09:03:27.818Z,12.10
2023-03-29T09:08:29.347Z,11.95
2023-03-29T09:13:38.724Z,12.45
2023-03-29T09:18:42.443Z,12.10
2023-03-29T09:23:55.779Z,10.88
2023-03-29T09:29:20.415Z,11.30
2023-03-29T09:34:42.108Z,13.68
2023-03-29T09:39:43.745Z,12.25
2023-03-29T09:44:50.826Z,11.30
2023-03-29T09:49:55.275Z,10.60
2023-03-29T09:54:56.835Z,10.63
2023-03-29T09:59:58.944Z,11.52
2023-03-29T10:05:04.273Z,12.85
2023-03-29T10:10:09.460Z,12.63
2023-03-29T10:15:23.097Z,11.75
2023-03-29T10:20:30.698Z,11.15
2023-03-29T10:25:32.836Z,12.20
2023-03-29T10:30:37.841Z,11.95
2023-03-29T10:35:41.453Z,12.52
2023-03-29T10:40:49.562Z,12.27
2023-03-29T10:45:55.070Z,12.20
2023-03-29T10:51:00.948Z,12.43
2023-03-29T10:56:37.018Z,13.05
2023-03-29T11:01:56.578Z,11.70
2023-03-29T11:07:12.055Z,12.30
2023-03-29T11:12:41.581Z,12.95
2023-03-29T11:17:57.909Z,12.65
2023-03-29T11:23:25.552Z,12.25
2023-03-29T11:28:28.502Z,13.30
2023-03-29T11:33:37.483Z,11.70
2023-03-29T11:38:51.131Z,11.15
2023-03-29T11:44:08.422Z,12.18
2023-03-29T11:49:19.406Z,12.10
2023-03-29T11:54:42.534Z,10.80
2023-03-29T11:59:54.752Z,12.90
2023-03-29T12:04:57.274Z,12.10
2023-03-29T12:10:01.631Z,11.50
2023-03-29T12:15:19.974Z,12.32
2023-03-29T12:20:28.120Z,12.80
2023-03-29T12:25:52.188Z,12.52
2023-03-29T12:30:58.356Z,11.35
2023-03-29T12:36:21.897Z,10.73
2023-03-29T12:41:23.583Z,11.52
2023-03-29T12:46:26.384Z,11.40
2023-03-29T12:51:34.496Z,11.32
2023-03-29T12:56:58.424Z,11.60
2023-03-29T13:02:02.749Z,10.15
2023-03-29T13:07:04.892Z,12.32
2023-03-29T13:12:08.950Z,10.75
2023-03-29T13:17:27.910Z,10.57
2023-03-29T13:22:53.838Z,10.98
2023-03-29T13:28:13.018Z,10.75
2023-03-29T13:33:34.385Z,11.80
2023-03-29T13:38:46.929Z,11.57
2023-03-29T13:43:55.310Z,10.95
2023-03-29T13:49:23.913Z,10.13
2023-03-29T13:54:36.516Z,11.25
2023-03-29T14:00:00.661Z,10.43
2023-03-29T14:05:04.062Z,10.38
2023-03-29T14:10:05.727Z,11.82
2023-03-29T14:15:07.748Z,11.43
2023-03-29T14:20:09.618Z,10.27
2023-03-29T14:25:17.190Z,11.50
2023-03-29T14:30:20.351Z,11.35
2023-03-29T14:35:27.382Z,11.02
2023-03-29T14:40:29.782Z,9.65
2023-03-29T14:45:32.097Z,10.38
2023-03-29T14:50:33.621Z,9.65
2023-03-29T14:55:36.567Z,10.32
2023-03-29T15:00:39.320Z,9.63
2023-03-29T15:05:41.705Z,11.32
2023-03-29T15:10:45.088Z,9.85
2023-03-29T15:15:46.700Z,10.38
2023-03-29T15:20:48.278Z,9.27
2023-03-29T15:25:58.047Z,10.63
2023-03-29T15:31:08.264Z,9.93
2023-03-29T15:36:11.219Z,10.52
2023-03-29T15:41:16.120Z,10.77
2023-03-29T15:46:17.651Z,11.57
2023-03-29T15:51:19.128Z,10.73
2023-03-29T15:56:20.776Z,10.90
2023-03-29T16:01:35.507Z,10.48
2023-03-29T16:06:36.975Z,11.45
2023-03-29T16:11:39.434Z,11.00
2023-03-29T16:16:41.032Z,10.63
2023-03-29T16:21:43.104Z,9.88
2023-03-29T16:26:44.564Z,11.27
2023-03-29T16:31:46.755Z,10.18
2023-03-29T16:36:49.072Z,10.68
2023-03-29T16:41:50.906Z,11.18
2023-03-29T16:46:57.424Z,10.50
2023-03-29T16:51:59.795Z,10.45
2023-03-29T16:57:01.277Z,11.43
2023-03-29T17:02:02.780Z,10.48
2023-03-29T17:07:04.254Z,10.77
2023-03-29T17:12:05.828Z,10.20
2023-03-29T17:17:07.532Z,10.70
2023-03-29T17:22:08.999Z,9.50
2023-03-29T17:27:10.699Z,9.75
2023-03-29T17:32:12.187Z,10.20
2023-03-29T17:37:13.875Z,11.05
2023-03-29T17:42:16.165Z,10.00
2023-03-29T17:47:17.650Z,11.10
2023-03-29T17:52:19.262Z,10.57
2023-03-29T17:57:20.923Z,10.55
2023-03-29T18:02:23.467Z,11.00
2023-03-29T18:07:25.055Z,10.15
2023-03-29T18:12:27.313Z,10.93
2023-03-29T18:17:28.798Z,9.57
2023-03-29T18:22:33.140Z,9.57
2023-03-29T18:27:34.933Z,11.35
2023-03-29T18:32:36.611Z,10.90
2023-03-29T18:37:38.641Z,11.77
2023-03-29T18:42:40.384Z,12.95
2023-03-29T18:47:44.050Z,11.25
2023-03-29T18:52:46.985Z,11.85
2023-03-29T19:02:49.885Z,10.75
2023-03-29T19:07:54.164Z,11.10
2023-03-29T19:12:56.029Z,11.15
2023-03-29T19:17:57.578Z,11.35
2023-03-29T19:22:59.067Z,11.23
2023-03-29T19:28:00.570Z,9.57
2023-03-29T19:33:02.142Z,10.18
2023-03-29T19:38:03.650Z,8.88
2023-03-29T19:43:05.097Z,9.00
2023-03-29T19:48:07.061Z,8.63
2023-03-29T19:53:08.992Z,9.25
2023-03-29T19:58:10.499Z,8.68
2023-03-29T20:03:13.852Z,10.55
2023-03-29T20:08:15.634Z,9.40
2023-03-29T20:13:24.455Z,9.07
2023-03-29T20:18:33.312Z,10.55
2023-03-29T20:23:35.155Z,9.88
2023-03-29T20:28:39.427Z,10.88
2023-03-29T20:33:41.418Z,9.77
2023-03-29T20:38:42.882Z,10.57
2023-03-29T20:43:46.119Z,11.00
2023-03-29T20:48:53.337Z,12.00
2023-03-29T20:54:02.780Z,10.63
2023-03-29T21:04:08.227Z,11.60
2023-03-29T21:09:09.699Z,11.77
2023-03-29T21:14:11.176Z,12.23
2023-03-29T21:19:12.850Z,13.50
2023-03-29T21:24:14.360Z,13.63
2023-03-29T21:29:15.848Z,16.15
2023-03-29T21:34:17.294Z,16.67
2023-03-29T21:39:18.743Z,16.75
2023-03-29T21:44:20.337Z,17.58
2023-03-29T21:49:21.817Z,18.27
2023-03-29T21:54:23.273Z,18.50
2023-03-29T21:59:24.748Z,18.92
2023-03-29T22:04:35.831Z,19.05
2023-03-29T22:09:41.193Z,18.75
2023-03-29T22:14:42.675Z,20.02
2023-03-29T22:19:44.169Z,18.88
2023-03-29T22:24:45.693Z,21.17
2023-03-29T22:29:47.138Z,19.05
2023-03-29T22:34:48.578Z,21.50
2023-03-29T22:39:50.075Z,20.30
2023-03-29T22:44:51.548Z,20.00
2023-03-29T22:49:53.025Z,20.25
2023-03-29T22:54:54.470Z,20.23
2023-03-29T22:59:55.928Z,23.83
2023-03-29T23:04:57.430Z,22.25
2023-03-29T23:09:59.036Z,23.02
2023-03-29T23:15:00.523Z,23.50
2023-03-29T23:20:02.065Z,24.75
2023-03-29T23:25:03.619Z,24.60
2023-03-29T23:30:07.472Z,26.20
2023-03-29T23:35:09.053Z,26.58
2023-03-29T23:40:16.907Z,26.55
2023-03-29T23:45:18.493Z,27.63
2023-03-29T23:50:20.016Z,29.42
2023-03-29T23:55:21.482Z,26.30
